sensor_id;sensor_type;location;lat;lon;timestamp;P1;durP1;ratioP1;P2;durP2;ratioP2
38609;SDS011;24367;51.640;9.566;2023-05-07T00:01:23;3.30;;;1.80;;
38609;SDS011;24367;51.640;9.566;2023-05-07T00:03:50;3.15;;;1.73;;
38609;SDS011;24367;51.640;9.566;2023-05-07T00:06:17;2.70;;;1.45;;
38609;SDS011;24367;51.640;9.566;2023-05-07T00:08:44;2.38;;;1.45;;
38609;SDS011;24367;51.640;9.566;2023-05-07T00:11:10;4.82;;;1.75;;
38609;SDS011;24367;51.640;9.566;2023-05-07T00:13:38;3.80;;;1.55;;
38609;SDS011;24367;51.640;9.566;2023-05-07T00:16:05;2.75;;;1.50;;
38609;SDS011;24367;51.640;9.566;2023-05-07T00:18:31;3.95;;;1.60;;
38609;SDS011;24367;51.640;9.566;2023-05-07T00:20:57;2.15;;;1.20;;
38609;SDS011;24367;51.640;9.566;2023-05-07T00:23:24;4.10;;;1.65;;
38609;SDS011;24367;51.640;9.566;2023-05-07T00:25:50;2.40;;;1.60;;
38609;SDS011;24367;51.640;9.566;2023-05-07T00:28:17;2.97;;;1.50;;
38609;SDS011;24367;51.640;9.566;2023-05-07T00:30:44;2.58;;;1.67;;
38609;SDS011;24367;51.640;9.566;2023-05-07T00:33:11;2.65;;;1.63;;
38609;SDS011;24367;51.640;9.566;2023-05-07T00:35:37;3.65;;;1.92;;
38609;SDS011;24367;51.640;9.566;2023-05-07T00:38:03;3.28;;;1.95;;
38609;SDS011;24367;51.640;9.566;2023-05-07T00:40:30;5.95;;;2.00;;
38609;SDS011;24367;51.640;9.566;2023-05-07T00:42:56;2.80;;;1.40;;
38609;SDS011;24367;51.640;9.566;2023-05-07T00:45:25;2.63;;;1.77;;
38609;SDS011;24367;51.640;9.566;2023-05-07T00:47:54;3.58;;;2.08;;
38609;SDS011;24367;51.640;9.566;2023-05-07T00:50:21;2.25;;;1.70;;
38609;SDS011;24367;51.640;9.566;2023-05-07T00:52:48;2.05;;;1.40;;
38609;SDS011;24367;51.640;9.566;2023-05-07T00:55:14;4.10;;;2.10;;
38609;SDS011;24367;51.640;9.566;2023-05-07T00:57:41;2.85;;;1.70;;
38609;SDS011;24367;51.640;9.566;2023-05-07T01:00:08;3.53;;;1.58;;
38609;SDS011;24367;51.640;9.566;2023-05-07T01:02:36;3.10;;;1.60;;
38609;SDS011;24367;51.640;9.566;2023-05-07T01:05:05;3.25;;;1.70;;
38609;SDS011;24367;51.640;9.566;2023-05-07T01:07:34;2.55;;;2.00;;
38609;SDS011;24367;51.640;9.566;2023-05-07T01:10:01;3.67;;;1.63;;
38609;SDS011;24367;51.640;9.566;2023-05-07T01:12:28;4.53;;;1.85;;
38609;SDS011;24367;51.640;9.566;2023-05-07T01:14:55;2.65;;;1.75;;
38609;SDS011;24367;51.640;9.566;2023-05-07T01:17:22;2.80;;;1.80;;
38609;SDS011;24367;51.640;9.566;2023-05-07T01:19:48;2.22;;;1.60;;
38609;SDS011;24367;51.640;9.566;2023-05-07T01:24:50;2.92;;;1.85;;
38609;SDS011;24367;51.640;9.566;2023-05-07T01:27:17;3.05;;;1.73;;
38609;SDS011;24367;51.640;9.566;2023-05-07T01:29:45;3.20;;;1.90;;
38609;SDS011;24367;51.640;9.566;2023-05-07T01:32:11;2.22;;;1.73;;
38609;SDS011;24367;51.640;9.566;2023-05-07T01:34:39;2.67;;;1.77;;
38609;SDS011;24367;51.640;9.566;2023-05-07T01:37:05;2.90;;;2.08;;
38609;SDS011;24367;51.640;9.566;2023-05-07T01:39:33;2.25;;;1.70;;
38609;SDS011;24367;51.640;9.566;2023-05-07T01:42:02;3.35;;;1.83;;
38609;SDS011;24367;51.640;9.566;2023-05-07T01:44:28;2.83;;;1.90;;
38609;SDS011;24367;51.640;9.566;2023-05-07T01:46:55;2.30;;;1.70;;
38609;SDS011;24367;51.640;9.566;2023-05-07T01:49:22;3.00;;;1.90;;
38609;SDS011;24367;51.640;9.566;2023-05-07T01:51:49;3.15;;;1.80;;
38609;SDS011;24367;51.640;9.566;2023-05-07T01:54:15;5.25;;;1.83;;
38609;SDS011;24367;51.640;9.566;2023-05-07T01:56:44;2.40;;;1.75;;
38609;SDS011;24367;51.640;9.566;2023-05-07T01:59:13;2.60;;;1.80;;
38609;SDS011;24367;51.640;9.566;2023-05-07T02:01:39;2.95;;;1.98;;
38609;SDS011;24367;51.640;9.566;2023-05-07T02:04:05;3.13;;;1.58;;
38609;SDS011;24367;51.640;9.566;2023-05-07T02:06:32;2.72;;;1.83;;
38609;SDS011;24367;51.640;9.566;2023-05-07T02:09:02;2.53;;;1.90;;
38609;SDS011;24367;51.640;9.566;2023-05-07T02:11:29;2.80;;;1.65;;
38609;SDS011;24367;51.640;9.566;2023-05-07T02:13:57;2.63;;;1.95;;
38609;SDS011;24367;51.640;9.566;2023-05-07T02:16:23;2.50;;;1.80;;
38609;SDS011;24367;51.640;9.566;2023-05-07T02:18:50;3.78;;;1.90;;
38609;SDS011;24367;51.640;9.566;2023-05-07T02:21:17;3.42;;;1.80;;
38609;SDS011;24367;51.640;9.566;2023-05-07T02:23:43;2.78;;;1.90;;
38609;SDS011;24367;51.640;9.566;2023-05-07T02:26:10;2.75;;;1.73;;
38609;SDS011;24367;51.640;9.566;2023-05-07T02:28:37;4.93;;;1.85;;
38609;SDS011;24367;51.640;9.566;2023-05-07T02:31:06;2.42;;;1.60;;
38609;SDS011;24367;51.640;9.566;2023-05-07T02:33:33;3.35;;;2.25;;
38609;SDS011;24367;51.640;9.566;2023-05-07T02:36:07;3.08;;;1.90;;
38609;SDS011;24367;51.640;9.566;2023-05-07T02:38:35;2.85;;;1.95;;
38609;SDS011;24367;51.640;9.566;2023-05-07T02:41:02;2.42;;;1.80;;
38609;SDS011;24367;51.640;9.566;2023-05-07T02:43:29;4.10;;;2.00;;
38609;SDS011;24367;51.640;9.566;2023-05-07T02:46:00;3.53;;;2.20;;
38609;SDS011;24367;51.640;9.566;2023-05-07T02:48:29;2.47;;;1.80;;
38609;SDS011;24367;51.640;9.566;2023-05-07T02:50:55;2.50;;;2.00;;
38609;SDS011;24367;51.640;9.566;2023-05-07T02:53:22;3.40;;;2.08;;
38609;SDS011;24367;51.640;9.566;2023-05-07T02:55:50;2.58;;;1.90;;
38609;SDS011;24367;51.640;9.566;2023-05-07T02:58:16;3.15;;;2.00;;
38609;SDS011;24367;51.640;9.566;2023-05-07T03:00:43;3.08;;;2.15;;
38609;SDS011;24367;51.640;9.566;2023-05-07T03:03:20;2.67;;;2.03;;
38609;SDS011;24367;51.640;9.566;2023-05-07T03:05:49;2.83;;;1.88;;
38609;SDS011;24367;51.640;9.566;2023-05-07T03:08:15;2.80;;;2.10;;
38609;SDS011;24367;51.640;9.566;2023-05-07T03:10:42;2.83;;;2.25;;
38609;SDS011;24367;51.640;9.566;2023-05-07T03:13:09;2.63;;;2.13;;
38609;SDS011;24367;51.640;9.566;2023-05-07T03:15:35;2.45;;;1.90;;
38609;SDS011;24367;51.640;9.566;2023-05-07T03:18:01;2.78;;;1.98;;
38609;SDS011;24367;51.640;9.566;2023-05-07T03:20:28;3.10;;;2.42;;
38609;SDS011;24367;51.640;9.566;2023-05-07T03:22:56;2.88;;;1.70;;
38609;SDS011;24367;51.640;9.566;2023-05-07T03:25:23;3.55;;;2.30;;
38609;SDS011;24367;51.640;9.566;2023-05-07T03:27:49;3.05;;;2.05;;
38609;SDS011;24367;51.640;9.566;2023-05-07T03:30:18;4.35;;;2.17;;
38609;SDS011;24367;51.640;9.566;2023-05-07T03:32:45;3.55;;;2.10;;
38609;SDS011;24367;51.640;9.566;2023-05-07T03:35:11;4.22;;;2.00;;
38609;SDS011;24367;51.640;9.566;2023-05-07T03:37:39;3.38;;;2.20;;
38609;SDS011;24367;51.640;9.566;2023-05-07T03:40:07;2.70;;;2.05;;
38609;SDS011;24367;51.640;9.566;2023-05-07T03:42:41;3.30;;;2.05;;
38609;SDS011;24367;51.640;9.566;2023-05-07T03:45:08;3.28;;;2.40;;
38609;SDS011;24367;51.640;9.566;2023-05-07T03:47:36;3.30;;;2.22;;
38609;SDS011;24367;51.640;9.566;2023-05-07T03:50:03;2.90;;;2.25;;
38609;SDS011;24367;51.640;9.566;2023-05-07T03:52:30;3.35;;;2.20;;
38609;SDS011;24367;51.640;9.566;2023-05-07T03:54:59;3.17;;;2.40;;
38609;SDS011;24367;51.640;9.566;2023-05-07T03:57:27;3.17;;;2.40;;
38609;SDS011;24367;51.640;9.566;2023-05-07T03:59:56;2.75;;;2.17;;
38609;SDS011;24367;51.640;9.566;2023-05-07T04:02:23;3.85;;;2.35;;
38609;SDS011;24367;51.640;9.566;2023-05-07T04:04:49;3.55;;;2.35;;
38609;SDS011;24367;51.640;9.566;2023-05-07T04:07:16;3.15;;;2.30;;
38609;SDS011;24367;51.640;9.566;2023-05-07T04:09:47;3.40;;;2.10;;
38609;SDS011;24367;51.640;9.566;2023-05-07T04:12:13;3.15;;;2.35;;
38609;SDS011;24367;51.640;9.566;2023-05-07T04:14:42;3.10;;;2.20;;
38609;SDS011;24367;51.640;9.566;2023-05-07T04:17:08;3.05;;;2.28;;
38609;SDS011;24367;51.640;9.566;2023-05-07T04:19:36;3.00;;;2.10;;
38609;SDS011;24367;51.640;9.566;2023-05-07T04:22:03;3.00;;;2.22;;
38609;SDS011;24367;51.640;9.566;2023-05-07T04:24:31;3.08;;;2.40;;
38609;SDS011;24367;51.640;9.566;2023-05-07T04:26:58;2.63;;;2.00;;
38609;SDS011;24367;51.640;9.566;2023-05-07T04:29:24;3.78;;;2.30;;
38609;SDS011;24367;51.640;9.566;2023-05-07T04:31:52;2.90;;;2.30;;
38609;SDS011;24367;51.640;9.566;2023-05-07T04:34:21;2.80;;;2.15;;
38609;SDS011;24367;51.640;9.566;2023-05-07T04:36:47;3.00;;;2.10;;
38609;SDS011;24367;51.640;9.566;2023-05-07T04:39:14;3.00;;;2.38;;
38609;SDS011;24367;51.640;9.566;2023-05-07T04:41:44;3.38;;;2.30;;
38609;SDS011;24367;51.640;9.566;2023-05-07T04:44:11;2.58;;;2.10;;
38609;SDS011;24367;51.640;9.566;2023-05-07T04:46:38;3.00;;;2.35;;
38609;SDS011;24367;51.640;9.566;2023-05-07T04:49:06;3.38;;;2.47;;
38609;SDS011;24367;51.640;9.566;2023-05-07T04:51:33;3.10;;;2.22;;
38609;SDS011;24367;51.640;9.566;2023-05-07T04:53:59;2.58;;;2.20;;
38609;SDS011;24367;51.640;9.566;2023-05-07T04:56:28;3.53;;;2.50;;
38609;SDS011;24367;51.640;9.566;2023-05-07T04:58:55;3.00;;;2.20;;
38609;SDS011;24367;51.640;9.566;2023-05-07T05:01:23;3.35;;;2.47;;
38609;SDS011;24367;51.640;9.566;2023-05-07T05:03:49;3.03;;;2.38;;
38609;SDS011;24367;51.640;9.566;2023-05-07T05:06:18;2.85;;;2.55;;
38609;SDS011;24367;51.640;9.566;2023-05-07T05:08:44;2.80;;;2.30;;
38609;SDS011;24367;51.640;9.566;2023-05-07T05:11:11;3.03;;;2.30;;
38609;SDS011;24367;51.640;9.566;2023-05-07T05:13:38;3.53;;;2.38;;
38609;SDS011;24367;51.640;9.566;2023-05-07T05:16:10;2.83;;;2.33;;
38609;SDS011;24367;51.640;9.566;2023-05-07T05:18:37;3.22;;;2.35;;
38609;SDS011;24367;51.640;9.566;2023-05-07T05:21:04;2.60;;;2.00;;
38609;SDS011;24367;51.640;9.566;2023-05-07T05:23:33;3.15;;;2.20;;
38609;SDS011;24367;51.640;9.566;2023-05-07T05:25:59;3.25;;;2.63;;
38609;SDS011;24367;51.640;9.566;2023-05-07T05:28:29;2.67;;;2.05;;
38609;SDS011;24367;51.640;9.566;2023-05-07T05:30:56;2.70;;;2.30;;
38609;SDS011;24367;51.640;9.566;2023-05-07T05:33:24;3.20;;;2.47;;
38609;SDS011;24367;51.640;9.566;2023-05-07T05:35:50;3.17;;;2.30;;
38609;SDS011;24367;51.640;9.566;2023-05-07T05:38:16;3.55;;;2.53;;
38609;SDS011;24367;51.640;9.566;2023-05-07T05:40:44;3.10;;;2.40;;
38609;SDS011;24367;51.640;9.566;2023-05-07T05:43:10;3.65;;;2.60;;
38609;SDS011;24367;51.640;9.566;2023-05-07T05:45:37;3.65;;;2.40;;
38609;SDS011;24367;51.640;9.566;2023-05-07T05:48:05;3.15;;;2.60;;
38609;SDS011;24367;51.640;9.566;2023-05-07T05:50:31;3.08;;;2.40;;
38609;SDS011;24367;51.640;9.566;2023-05-07T05:52:58;3.20;;;2.72;;
38609;SDS011;24367;51.640;9.566;2023-05-07T05:55:26;3.13;;;2.55;;
38609;SDS011;24367;51.640;9.566;2023-05-07T05:57:54;3.47;;;2.58;;
38609;SDS011;24367;51.640;9.566;2023-05-07T06:00:22;2.78;;;2.22;;
38609;SDS011;24367;51.640;9.566;2023-05-07T06:05:24;3.10;;;2.60;;
38609;SDS011;24367;51.640;9.566;2023-05-07T06:07:52;2.80;;;2.22;;
38609;SDS011;24367;51.640;9.566;2023-05-07T06:10:19;2.85;;;2.15;;
38609;SDS011;24367;51.640;9.566;2023-05-07T06:12:46;2.72;;;2.22;;
38609;SDS011;24367;51.640;9.566;2023-05-07T06:15:14;3.10;;;2.35;;
38609;SDS011;24367;51.640;9.566;2023-05-07T06:17:41;3.40;;;2.70;;
38609;SDS011;24367;51.640;9.566;2023-05-07T06:20:09;3.08;;;2.50;;
38609;SDS011;24367;51.640;9.566;2023-05-07T06:22:36;4.18;;;2.53;;
38609;SDS011;24367;51.640;9.566;2023-05-07T06:25:02;3.00;;;2.40;;
38609;SDS011;24367;51.640;9.566;2023-05-07T06:27:29;2.60;;;2.17;;
38609;SDS011;24367;51.640;9.566;2023-05-07T06:29:56;3.22;;;2.53;;
38609;SDS011;24367;51.640;9.566;2023-05-07T06:32:23;2.97;;;2.50;;
38609;SDS011;24367;51.640;9.566;2023-05-07T06:34:50;2.78;;;2.22;;
38609;SDS011;24367;51.640;9.566;2023-05-07T06:37:18;2.90;;;2.42;;
38609;SDS011;24367;51.640;9.566;2023-05-07T06:40:01;3.05;;;2.50;;
38609;SDS011;24367;51.640;9.566;2023-05-07T06:42:29;3.63;;;2.70;;
38609;SDS011;24367;51.640;9.566;2023-05-07T06:44:58;4.13;;;2.40;;
38609;SDS011;24367;51.640;9.566;2023-05-07T06:47:29;3.10;;;2.70;;
38609;SDS011;24367;51.640;9.566;2023-05-07T06:49:56;2.97;;;2.35;;
38609;SDS011;24367;51.640;9.566;2023-05-07T06:52:25;3.13;;;2.60;;
38609;SDS011;24367;51.640;9.566;2023-05-07T06:54:52;3.33;;;2.40;;
38609;SDS011;24367;51.640;9.566;2023-05-07T06:57:21;2.50;;;1.95;;
38609;SDS011;24367;51.640;9.566;2023-05-07T06:59:47;2.80;;;2.45;;
38609;SDS011;24367;51.640;9.566;2023-05-07T07:02:14;3.35;;;2.67;;
38609;SDS011;24367;51.640;9.566;2023-05-07T07:04:42;2.88;;;2.50;;
38609;SDS011;24367;51.640;9.566;2023-05-07T07:07:10;2.47;;;2.15;;
38609;SDS011;24367;51.640;9.566;2023-05-07T07:09:38;3.42;;;2.40;;
38609;SDS011;24367;51.640;9.566;2023-05-07T07:12:06;2.90;;;2.28;;
38609;SDS011;24367;51.640;9.566;2023-05-07T07:14:35;2.60;;;2.10;;
38609;SDS011;24367;51.640;9.566;2023-05-07T07:17:01;2.88;;;2.20;;
38609;SDS011;24367;51.640;9.566;2023-05-07T07:19:30;3.00;;;2.30;;
38609;SDS011;24367;51.640;9.566;2023-05-07T07:21:58;3.78;;;2.63;;
38609;SDS011;24367;51.640;9.566;2023-05-07T07:24:25;2.80;;;2.30;;
38609;SDS011;24367;51.640;9.566;2023-05-07T07:26:56;3.22;;;2.60;;
38609;SDS011;24367;51.640;9.566;2023-05-07T07:29:23;2.95;;;2.50;;
38609;SDS011;24367;51.640;9.566;2023-05-07T07:31:51;3.63;;;2.60;;
38609;SDS011;24367;51.640;9.566;2023-05-07T07:34:19;3.35;;;2.30;;
38609;SDS011;24367;51.640;9.566;2023-05-07T07:36:46;3.08;;;2.10;;
38609;SDS011;24367;51.640;9.566;2023-05-07T07:39:16;3.20;;;2.63;;
38609;SDS011;24367;51.640;9.566;2023-05-07T07:41:44;2.90;;;2.50;;
38609;SDS011;24367;51.640;9.566;2023-05-07T07:44:11;2.80;;;2.20;;
38609;SDS011;24367;51.640;9.566;2023-05-07T07:46:39;2.63;;;2.20;;
38609;SDS011;24367;51.640;9.566;2023-05-07T07:49:06;3.00;;;2.53;;
38609;SDS011;24367;51.640;9.566;2023-05-07T07:51:33;3.15;;;2.42;;
38609;SDS011;24367;51.640;9.566;2023-05-07T07:54:00;3.03;;;2.40;;
38609;SDS011;24367;51.640;9.566;2023-05-07T07:56:29;2.88;;;2.30;;
38609;SDS011;24367;51.640;9.566;2023-05-07T07:58:56;2.65;;;2.28;;
38609;SDS011;24367;51.640;9.566;2023-05-07T08:01:22;3.10;;;2.28;;
38609;SDS011;24367;51.640;9.566;2023-05-07T08:03:48;2.95;;;2.47;;
38609;SDS011;24367;51.640;9.566;2023-05-07T08:06:15;2.80;;;2.40;;
38609;SDS011;24367;51.640;9.566;2023-05-07T08:08:42;2.97;;;2.45;;
38609;SDS011;24367;51.640;9.566;2023-05-07T08:11:08;3.20;;;2.60;;
38609;SDS011;24367;51.640;9.566;2023-05-07T08:13:36;2.80;;;2.22;;
38609;SDS011;24367;51.640;9.566;2023-05-07T08:16:04;2.53;;;2.05;;
38609;SDS011;24367;51.640;9.566;2023-05-07T08:18:31;3.10;;;2.60;;
38609;SDS011;24367;51.640;9.566;2023-05-07T08:21:00;3.20;;;2.40;;
38609;SDS011;24367;51.640;9.566;2023-05-07T08:23:27;3.60;;;2.60;;
38609;SDS011;24367;51.640;9.566;2023-05-07T08:25:53;3.15;;;2.45;;
38609;SDS011;24367;51.640;9.566;2023-05-07T08:28:20;3.15;;;2.28;;
38609;SDS011;24367;51.640;9.566;2023-05-07T08:30:48;3.30;;;2.40;;
38609;SDS011;24367;51.640;9.566;2023-05-07T08:33:15;3.53;;;2.42;;
38609;SDS011;24367;51.640;9.566;2023-05-07T08:35:41;2.53;;;2.10;;
38609;SDS011;24367;51.640;9.566;2023-05-07T08:38:09;3.88;;;2.00;;
38609;SDS011;24367;51.640;9.566;2023-05-07T08:40:36;3.38;;;2.28;;
38609;SDS011;24367;51.640;9.566;2023-05-07T08:43:06;3.17;;;2.20;;
38609;SDS011;24367;51.640;9.566;2023-05-07T08:45:35;3.58;;;2.50;;
38609;SDS011;24367;51.640;9.566;2023-05-07T08:48:08;3.53;;;2.20;;
38609;SDS011;24367;51.640;9.566;2023-05-07T08:50:35;4.10;;;2.05;;
38609;SDS011;24367;51.640;9.566;2023-05-07T08:53:02;5.53;;;2.40;;
38609;SDS011;24367;51.640;9.566;2023-05-07T08:55:29;6.10;;;2.10;;
38609;SDS011;24367;51.640;9.566;2023-05-07T08:57:56;3.95;;;2.50;;
38609;SDS011;24367;51.640;9.566;2023-05-07T09:00:22;2.92;;;2.38;;
38609;SDS011;24367;51.640;9.566;2023-05-07T09:02:51;2.85;;;1.90;;
38609;SDS011;24367;51.640;9.566;2023-05-07T09:05:20;2.80;;;2.30;;
38609;SDS011;24367;51.640;9.566;2023-05-07T09:07:46;3.38;;;2.22;;
38609;SDS011;24367;51.640;9.566;2023-05-07T09:10:14;3.85;;;2.17;;
38609;SDS011;24367;51.640;9.566;2023-05-07T09:12:42;3.00;;;2.40;;
38609;SDS011;24367;51.640;9.566;2023-05-07T09:15:10;4.47;;;2.40;;
38609;SDS011;24367;51.640;9.566;2023-05-07T09:17:38;3.30;;;2.75;;
38609;SDS011;24367;51.640;9.566;2023-05-07T09:20:06;2.70;;;2.20;;
38609;SDS011;24367;51.640;9.566;2023-05-07T09:22:35;3.58;;;2.50;;
38609;SDS011;24367;51.640;9.566;2023-05-07T09:25:06;3.22;;;2.33;;
38609;SDS011;24367;51.640;9.566;2023-05-07T09:27:34;4.18;;;2.67;;
38609;SDS011;24367;51.640;9.566;2023-05-07T09:30:02;3.65;;;2.80;;
38609;SDS011;24367;51.640;9.566;2023-05-07T09:32:29;6.07;;;2.58;;
38609;SDS011;24367;51.640;9.566;2023-05-07T09:34:57;5.55;;;2.78;;
38609;SDS011;24367;51.640;9.566;2023-05-07T09:37:26;4.32;;;2.60;;
38609;SDS011;24367;51.640;9.566;2023-05-07T09:39:54;5.78;;;3.00;;
38609;SDS011;24367;51.640;9.566;2023-05-07T09:42:22;6.60;;;2.60;;
38609;SDS011;24367;51.640;9.566;2023-05-07T09:44:50;9.63;;;3.00;;
38609;SDS011;24367;51.640;9.566;2023-05-07T09:47:20;4.50;;;2.88;;
38609;SDS011;24367;51.640;9.566;2023-05-07T09:49:53;5.60;;;2.55;;
38609;SDS011;24367;51.640;9.566;2023-05-07T09:52:22;9.95;;;3.05;;
38609;SDS011;24367;51.640;9.566;2023-05-07T09:54:54;5.50;;;2.85;;
38609;SDS011;24367;51.640;9.566;2023-05-07T09:57:24;6.38;;;2.55;;
38609;SDS011;24367;51.640;9.566;2023-05-07T09:59:56;5.38;;;2.53;;
38609;SDS011;24367;51.640;9.566;2023-05-07T10:02:23;3.53;;;2.47;;
38609;SDS011;24367;51.640;9.566;2023-05-07T10:04:51;3.83;;;2.55;;
38609;SDS011;24367;51.640;9.566;2023-05-07T10:07:23;8.30;;;2.45;;
38609;SDS011;24367;51.640;9.566;2023-05-07T10:09:55;5.35;;;2.30;;
38609;SDS011;24367;51.640;9.566;2023-05-07T10:12:30;6.40;;;2.78;;
38609;SDS011;24367;51.640;9.566;2023-05-07T10:15:05;6.18;;;2.80;;
38609;SDS011;24367;51.640;9.566;2023-05-07T10:17:33;4.93;;;2.80;;
38609;SDS011;24367;51.640;9.566;2023-05-07T10:20:01;3.72;;;2.80;;
38609;SDS011;24367;51.640;9.566;2023-05-07T10:22:27;6.07;;;2.63;;
38609;SDS011;24367;51.640;9.566;2023-05-07T10:24:58;2.88;;;2.10;;
38609;SDS011;24367;51.640;9.566;2023-05-07T10:27:25;4.43;;;2.45;;
38609;SDS011;24367;51.640;9.566;2023-05-07T10:29:56;4.95;;;2.10;;
38609;SDS011;24367;51.640;9.566;2023-05-07T10:32:32;4.00;;;2.67;;
38609;SDS011;24367;51.640;9.566;2023-05-07T10:35:02;6.32;;;2.70;;
38609;SDS011;24367;51.640;9.566;2023-05-07T10:37:32;4.68;;;2.30;;
38609;SDS011;24367;51.640;9.566;2023-05-07T10:40:01;5.03;;;2.42;;
38609;SDS011;24367;51.640;9.566;2023-05-07T10:42:29;4.43;;;2.30;;
38609;SDS011;24367;51.640;9.566;2023-05-07T10:44:55;3.65;;;2.50;;
38609;SDS011;24367;51.640;9.566;2023-05-07T10:47:27;3.08;;;2.33;;
38609;SDS011;24367;51.640;9.566;2023-05-07T10:52:55;4.68;;;2.78;;
38609;SDS011;24367;51.640;9.566;2023-05-07T10:56:26;3.47;;;2.43;;
38609;SDS011;24367;51.640;9.566;2023-05-07T11:01:56;3.22;;;2.20;;
38609;SDS011;24367;51.640;9.566;2023-05-07T11:04:31;3.78;;;2.50;;
38609;SDS011;24367;51.640;9.566;2023-05-07T11:07:21;8.43;;;2.38;;
38609;SDS011;24367;51.640;9.566;2023-05-07T11:09:56;3.67;;;2.53;;
38609;SDS011;24367;51.640;9.566;2023-05-07T11:12:52;3.85;;;2.45;;
38609;SDS011;24367;51.640;9.566;2023-05-07T11:15:33;4.90;;;2.35;;
38609;SDS011;24367;51.640;9.566;2023-05-07T11:18:05;4.03;;;2.17;;
38609;SDS011;24367;51.640;9.566;2023-05-07T11:20:49;3.58;;;2.20;;
38609;SDS011;24367;51.640;9.566;2023-05-07T11:26:30;4.28;;;2.33;;
38609;SDS011;24367;51.640;9.566;2023-05-07T11:29:00;4.20;;;2.30;;
38609;SDS011;24367;51.640;9.566;2023-05-07T11:31:27;4.13;;;2.22;;
38609;SDS011;24367;51.640;9.566;2023-05-07T11:33:56;3.03;;;2.08;;
38609;SDS011;24367;51.640;9.566;2023-05-07T11:36:24;4.10;;;2.13;;
38609;SDS011;24367;51.640;9.566;2023-05-07T11:38:52;3.75;;;2.40;;
38609;SDS011;24367;51.640;9.566;2023-05-07T11:41:19;4.00;;;2.45;;
38609;SDS011;24367;51.640;9.566;2023-05-07T11:43:55;2.67;;;2.15;;
38609;SDS011;24367;51.640;9.566;2023-05-07T11:46:23;3.50;;;2.50;;
38609;SDS011;24367;51.640;9.566;2023-05-07T11:48:50;3.40;;;2.22;;
38609;SDS011;24367;51.640;9.566;2023-05-07T11:51:19;3.45;;;2.42;;
38609;SDS011;24367;51.640;9.566;2023-05-07T11:53:46;3.10;;;2.15;;
38609;SDS011;24367;51.640;9.566;2023-05-07T11:56:13;3.33;;;2.33;;
38609;SDS011;24367;51.640;9.566;2023-05-07T11:58:41;3.05;;;2.22;;
38609;SDS011;24367;51.640;9.566;2023-05-07T12:01:07;3.10;;;2.10;;
38609;SDS011;24367;51.640;9.566;2023-05-07T12:03:36;2.90;;;2.58;;
38609;SDS011;24367;51.640;9.566;2023-05-07T12:06:04;3.97;;;2.47;;
38609;SDS011;24367;51.640;9.566;2023-05-07T12:08:32;4.30;;;2.55;;
38609;SDS011;24367;51.640;9.566;2023-05-07T12:10:58;3.92;;;2.47;;
38609;SDS011;24367;51.640;9.566;2023-05-07T12:13:25;3.22;;;2.30;;
38609;SDS011;24367;51.640;9.566;2023-05-07T12:15:52;3.60;;;2.30;;
38609;SDS011;24367;51.640;9.566;2023-05-07T12:18:19;3.75;;;2.45;;
38609;SDS011;24367;51.640;9.566;2023-05-07T12:20:47;3.33;;;2.40;;
38609;SDS011;24367;51.640;9.566;2023-05-07T12:23:14;3.13;;;2.42;;
38609;SDS011;24367;51.640;9.566;2023-05-07T12:25:41;3.42;;;2.45;;
38609;SDS011;24367;51.640;9.566;2023-05-07T12:28:12;3.40;;;2.70;;
38609;SDS011;24367;51.640;9.566;2023-05-07T12:30:39;2.90;;;2.15;;
38609;SDS011;24367;51.640;9.566;2023-05-07T12:33:06;3.38;;;2.33;;
38609;SDS011;24367;51.640;9.566;2023-05-07T12:35:36;3.40;;;2.03;;
38609;SDS011;24367;51.640;9.566;2023-05-07T12:38:06;4.13;;;2.15;;
38609;SDS011;24367;51.640;9.566;2023-05-07T12:40:37;3.45;;;2.63;;
38609;SDS011;24367;51.640;9.566;2023-05-07T12:43:05;4.03;;;2.15;;
38609;SDS011;24367;51.640;9.566;2023-05-07T12:45:31;3.97;;;2.53;;
38609;SDS011;24367;51.640;9.566;2023-05-07T12:48:02;3.08;;;2.15;;
38609;SDS011;24367;51.640;9.566;2023-05-07T12:50:30;3.03;;;2.30;;
38609;SDS011;24367;51.640;9.566;2023-05-07T12:52:57;3.00;;;2.38;;
38609;SDS011;24367;51.640;9.566;2023-05-07T12:55:25;3.03;;;2.42;;
38609;SDS011;24367;51.640;9.566;2023-05-07T12:57:52;2.95;;;2.40;;
38609;SDS011;24367;51.640;9.566;2023-05-07T13:00:31;2.88;;;2.22;;
38609;SDS011;24367;51.640;9.566;2023-05-07T13:02:58;2.67;;;2.17;;
38609;SDS011;24367;51.640;9.566;2023-05-07T13:05:25;3.22;;;2.55;;
38609;SDS011;24367;51.640;9.566;2023-05-07T13:07:54;5.95;;;2.40;;
38609;SDS011;24367;51.640;9.566;2023-05-07T13:10:21;3.55;;;2.22;;
38609;SDS011;24367;51.640;9.566;2023-05-07T13:12:49;3.08;;;2.13;;
38609;SDS011;24367;51.640;9.566;2023-05-07T13:15:15;3.00;;;2.28;;
38609;SDS011;24367;51.640;9.566;2023-05-07T13:17:42;3.08;;;2.00;;
38609;SDS011;24367;51.640;9.566;2023-05-07T13:20:09;2.75;;;2.17;;
38609;SDS011;24367;51.640;9.566;2023-05-07T13:22:36;2.88;;;2.28;;
38609;SDS011;24367;51.640;9.566;2023-05-07T13:25:02;4.90;;;2.17;;
38609;SDS011;24367;51.640;9.566;2023-05-07T13:27:29;2.60;;;2.25;;
38609;SDS011;24367;51.640;9.566;2023-05-07T13:29:57;2.70;;;2.08;;
38609;SDS011;24367;51.640;9.566;2023-05-07T13:32:23;3.25;;;2.35;;
38609;SDS011;24367;51.640;9.566;2023-05-07T13:34:50;3.25;;;2.17;;
38609;SDS011;24367;51.640;9.566;2023-05-07T13:37:16;4.18;;;2.33;;
38609;SDS011;24367;51.640;9.566;2023-05-07T13:39:42;2.95;;;2.30;;
38609;SDS011;24367;51.640;9.566;2023-05-07T13:42:09;3.00;;;2.20;;
38609;SDS011;24367;51.640;9.566;2023-05-07T13:44:36;2.40;;;1.95;;
38609;SDS011;24367;51.640;9.566;2023-05-07T13:47:03;2.58;;;2.08;;
38609;SDS011;24367;51.640;9.566;2023-05-07T13:49:30;3.83;;;2.17;;
38609;SDS011;24367;51.640;9.566;2023-05-07T13:51:56;2.92;;;2.00;;
38609;SDS011;24367;51.640;9.566;2023-05-07T13:54:22;2.70;;;2.00;;
38609;SDS011;24367;51.640;9.566;2023-05-07T13:56:49;3.72;;;2.10;;
38609;SDS011;24367;51.640;9.566;2023-05-07T13:59:16;3.65;;;2.58;;
38609;SDS011;24367;51.640;9.566;2023-05-07T14:01:42;2.60;;;2.10;;
38609;SDS011;24367;51.640;9.566;2023-05-07T14:04:10;2.83;;;2.30;;
38609;SDS011;24367;51.640;9.566;2023-05-07T14:06:36;2.92;;;2.25;;
38609;SDS011;24367;51.640;9.566;2023-05-07T14:09:04;2.90;;;2.33;;
38609;SDS011;24367;51.640;9.566;2023-05-07T14:11:30;2.97;;;2.15;;
38609;SDS011;24367;51.640;9.566;2023-05-07T14:13:56;3.08;;;2.40;;
38609;SDS011;24367;51.640;9.566;2023-05-07T14:16:23;3.15;;;2.53;;
38609;SDS011;24367;51.640;9.566;2023-05-07T14:18:49;3.15;;;2.40;;
38609;SDS011;24367;51.640;9.566;2023-05-07T14:21:17;2.95;;;2.40;;
38609;SDS011;24367;51.640;9.566;2023-05-07T14:23:44;5.43;;;2.38;;
38609;SDS011;24367;51.640;9.566;2023-05-07T14:26:10;6.03;;;2.67;;
38609;SDS011;24367;51.640;9.566;2023-05-07T14:28:36;5.75;;;2.50;;
38609;SDS011;24367;51.640;9.566;2023-05-07T14:31:04;3.40;;;2.30;;
38609;SDS011;24367;51.640;9.566;2023-05-07T14:33:31;4.75;;;2.60;;
38609;SDS011;24367;51.640;9.566;2023-05-07T14:35:57;4.07;;;2.60;;
38609;SDS011;24367;51.640;9.566;2023-05-07T14:38:25;6.25;;;2.88;;
38609;SDS011;24367;51.640;9.566;2023-05-07T14:40:52;7.28;;;2.50;;
38609;SDS011;24367;51.640;9.566;2023-05-07T14:43:20;7.35;;;2.42;;
38609;SDS011;24367;51.640;9.566;2023-05-07T14:45:48;10.18;;;3.35;;
38609;SDS011;24367;51.640;9.566;2023-05-07T14:48:15;13.82;;;2.95;;
38609;SDS011;24367;51.640;9.566;2023-05-07T14:50:41;11.15;;;3.40;;
38609;SDS011;24367;51.640;9.566;2023-05-07T14:53:08;10.38;;;3.03;;
38609;SDS011;24367;51.640;9.566;2023-05-07T14:55:35;10.98;;;2.95;;
38609;SDS011;24367;51.640;9.566;2023-05-07T14:58:02;8.00;;;2.80;;
38609;SDS011;24367;51.640;9.566;2023-05-07T15:00:29;7.22;;;2.90;;
38609;SDS011;24367;51.640;9.566;2023-05-07T15:03:01;5.28;;;2.67;;
38609;SDS011;24367;51.640;9.566;2023-05-07T15:05:31;6.38;;;3.00;;
38609;SDS011;24367;51.640;9.566;2023-05-07T15:07:57;18.58;;;3.30;;